Wetterdaten: Woche 28.10.19 - 03.11.19 (KW44)
Datum Zeit Temp. Aussen Temp. o. S. Temp +5cm Feuchte Auss Luftdruck Regen Sonnenschein Regendauer Solar Windben Empfang
28.10.2019 00:00 5,0 C 3,5 C 3,0 C 94 % 1024,3 hPa 0,2 l/m 0,00 h 0,00 h 0 W/m 0,0 km/h (0 Bft) 99,63 %
28.10.2019 01:00 4,5 C 3,2 C 2,8 C 95 % 1024,2 hPa 0,0 l/m 0,00 h 0,00 h 0 W/m 0,0 km/h (0 Bft) 96,16 %
28.10.2019 02:00 4,2 C 2,7 C 2,2 C 95 % 1024,0 hPa 0,0 l/m 0,00 h 0,00 h 0 W/m 0,0 km/h (0 Bft) 97,08 %
28.10.2019 03:00 3,8 C 2,4 C 2,2 C 95 % 1024,0 hPa 0,0 l/m 0,00 h 0,00 h 0 W/m 0,0 km/h (0 Bft) 96,01 %
28.10.2019 04:00 3,6 C 2,5 C 2,0 C 96 % 1024,0 hPa 0,0 l/m 0,00 h 0,00 h 0 W/m 0,0 km/h (0 Bft) 95,62 %
28.10.2019 05:00 3,4 C 2,0 C 1,9 C 96 % 1024,0 hPa 0,0 l/m 0,00 h 0,00 h 0 W/m 0,0 km/h (0 Bft) 98,15 %
28.10.2019 06:00 3,1 C 2,0 C 1,9 C 96 % 1024,0 hPa 0,0 l/m 0,00 h 0,00 h 0 W/m 1,2 km/h (1 Bft) 99,42 %
28.10.2019 07:00 3,0 C 1,8 C 1,9 C 97 % 1024,3 hPa 0,0 l/m 0,00 h 0,00 h 11 W/m 0,6 km/h (0 Bft) 92,68 %
28.10.2019 08:00 3,3 C 3,1 C 3,0 C 98 % 1024,7 hPa 0,0 l/m 0,07 h 0,00 h 47 W/m 1,2 km/h (1 Bft) 98,75 %
28.10.2019 09:00 5,4 C 7,8 C 5,9 C 99 % 1024,8 hPa 0,0 l/m 0,93 h 0,00 h 228 W/m 1,5 km/h (1 Bft) 98,23 %
28.10.2019 10:00 7,3 C 10,6 C 8,1 C 99 % 1024,9 hPa 0,0 l/m 0,93 h 0,00 h 232 W/m 1,0 km/h (0 Bft) 96,66 %
28.10.2019 11:00 8,9 C 12,3 C 10,0 C 99 % 1024,8 hPa 0,0 l/m 1,00 h 0,00 h 252 W/m 1,0 km/h (0 Bft) 96,35 %
28.10.2019 12:00 10,7 C 14,6 C 11,3 C 92 % 1024,4 hPa 0,0 l/m 0,80 h 0,00 h 299 W/m 2,6 km/h (1 Bft) 98,00 %
28.10.2019 13:00 12,4 C 15,4 C 11,6 C 82 % 1024,0 hPa 0,0 l/m 0,87 h 0,00 h 281 W/m 2,0 km/h (1 Bft) 98,57 %
28.10.2019 14:00 12,6 C 14,0 C 11,0 C 78 % 1023,5 hPa 0,0 l/m 0,50 h 0,00 h 196 W/m 2,3 km/h (1 Bft) 95,38 %
28.10.2019 15:00 12,5 C 13,3 C 10,4 C 75 % 1023,2 hPa 0,0 l/m 0,37 h 0,00 h 127 W/m 2,1 km/h (1 Bft) 96,88 %
28.10.2019 16:00 12,0 C 10,8 C 10,0 C 81 % 1023,0 hPa 0,0 l/m 0,37 h 0,00 h 40 W/m 3,3 km/h (1 Bft) 97,50 %
28.10.2019 17:00 10,9 C 8,8 C 8,4 C 85 % 1023,1 hPa 0,0 l/m 0,00 h 0,00 h 0 W/m 1,5 km/h (1 Bft) 94,93 %
28.10.2019 18:00 9,4 C 6,9 C 6,6 C 88 % 1023,2 hPa 0,0 l/m 0,00 h 0,00 h 0 W/m 0,0 km/h (0 Bft) 98,39 %
28.10.2019 19:00 8,2 C 6,0 C 5,6 C 90 % 1023,2 hPa 0,0 l/m 0,00 h 0,00 h 0 W/m 0,0 km/h (0 Bft) 97,09 %
28.10.2019 20:00 7,4 C 6,1 C 5,6 C 91 % 1023,4 hPa 0,0 l/m 0,00 h 0,00 h 0 W/m 0,0 km/h (0 Bft) 96,64 %
28.10.2019 21:00 7,1 C 5,7 C 5,2 C 93 % 1023,5 hPa 0,0 l/m 0,00 h 0,00 h 0 W/m 0,0 km/h (0 Bft) 98,20 %
28.10.2019 22:00 6,6 C 4,7 C 4,4 C 93 % 1023,4 hPa 0,0 l/m 0,00 h 0,00 h 0 W/m 0,0 km/h (0 Bft) 93,78 %
28.10.2019 23:00 5,8 C 3,7 C 3,5 C 93 % 1023,1 hPa 0,0 l/m 0,00 h 0,00 h 0 W/m 0,0 km/h (0 Bft) 98,36 %
29.10.2019 00:00 5,1 C 3,7 C 3,6 C 93 % 1023,1 hPa 0,2 l/m 0,00 h 0,00 h 0 W/m 0,0 km/h (0 Bft) 98,86 %
29.10.2019 01:00 5,1 C 4,0 C 3,5 C 95 % 1023,0 hPa 0,0 l/m 0,00 h 0,00 h 0 W/m 0,0 km/h (0 Bft) 97,96 %
29.10.2019 02:00 4,8 C 3,8 C 3,6 C 95 % 1023,0 hPa 0,0 l/m 0,00 h 0,00 h 0 W/m 0,0 km/h (0 Bft) 94,21 %
29.10.2019 03:00 5,0 C 4,1 C 3,9 C 96 % 1023,0 hPa 0,0 l/m 0,00 h 0,00 h 0 W/m 0,0 km/h (0 Bft) 98,50 %
29.10.2019 04:00 5,1 C 3,9 C 3,9 C 97 % 1023,1 hPa 0,0 l/m 0,00 h 0,00 h 0 W/m 0,0 km/h (0 Bft) 96,46 %
29.10.2019 05:00 5,1 C 4,1 C 3,8 C 97 % 1023,4 hPa 0,0 l/m 0,00 h 0,00 h 0 W/m 0,1 km/h (0 Bft) 99,00 %
29.10.2019 06:00 5,0 C 3,9 C 3,9 C 97 % 1023,5 hPa 0,0 l/m 0,00 h 0,00 h 0 W/m 0,0 km/h (0 Bft) 94,86 %
29.10.2019 07:00 4,9 C 4,0 C 3,9 C 97 % 1024,1 hPa 0,0 l/m 0,00 h 0,00 h 10 W/m 0,0 km/h (0 Bft) 97,37 %
29.10.2019 08:00 5,2 C 4,7 C 4,5 C 97 % 1024,8 hPa 0,0 l/m 0,00 h 0,00 h 28 W/m 0,0 km/h (0 Bft) 98,72 %
29.10.2019 09:00 5,8 C 7,1 C 5,4 C 98 % 1025,3 hPa 0,0 l/m 0,57 h 0,00 h 175 W/m 0,9 km/h (0 Bft) 97,43 %
29.10.2019 10:00 7,7 C 11,4 C 7,5 C 98 % 1025,6 hPa 0,0 l/m 0,90 h 0,00 h 309 W/m 4,9 km/h (1 Bft) 98,58 %
29.10.2019 11:00 10,3 C 16,1 C 9,1 C 89 % 1025,8 hPa 0,0 l/m 1,00 h 0,00 h 440 W/m 7,0 km/h (2 Bft) 97,48 %
29.10.2019 12:00 12,4 C 17,5 C 11,8 C 74 % 1025,7 hPa 0,0 l/m 1,00 h 0,00 h 486 W/m 6,8 km/h (2 Bft) 99,50 %
29.10.2019 13:00 12,8 C 15,2 C 11,1 C 70 % 1025,6 hPa 0,0 l/m 0,53 h 0,00 h 310 W/m 5,5 km/h (1 Bft) 96,78 %
29.10.2019 14:00 12,0 C 15,3 C 10,5 C 71 % 1025,5 hPa 0,0 l/m 0,93 h 0,00 h 333 W/m 5,0 km/h (1 Bft) 96,19 %
29.10.2019 15:00 11,5 C 12,3 C 9,0 C 72 % 1025,7 hPa 0,0 l/m 0,57 h 0,00 h 149 W/m 4,2 km/h (1 Bft) 97,56 %
29.10.2019 16:00 10,1 C 8,6 C 7,7 C 77 % 1026,0 hPa 0,0 l/m 0,00 h 0,00 h 33 W/m 1,7 km/h (1 Bft) 95,81 %
29.10.2019 17:00 8,6 C 6,6 C 5,9 C 80 % 1026,4 hPa 0,0 l/m 0,00 h 0,00 h 8 W/m 0,5 km/h (0 Bft) 97,29 %
29.10.2019 18:00 7,2 C 5,4 C 4,5 C 83 % 1026,9 hPa 0,0 l/m 0,00 h 0,00 h 0 W/m 0,0 km/h (0 Bft) 98,44 %
29.10.2019 19:00 6,2 C 4,3 C 3,7 C 86 % 1027,2 hPa 0,0 l/m 0,00 h 0,00 h 0 W/m 0,0 km/h (0 Bft) 99,03 %
29.10.2019 20:00 5,4 C 4,0 C 3,3 C 88 % 1027,5 hPa 0,0 l/m 0,00 h 0,00 h 0 W/m 0,1 km/h (0 Bft) 95,87 %
29.10.2019 21:00 4,9 C 3,6 C 2,9 C 91 % 1027,9 hPa 0,0 l/m 0,00 h 0,00 h 0 W/m 0,2 km/h (0 Bft) 96,80 %
29.10.2019 22:00 4,6 C 3,6 C 2,9 C 92 % 1028,0 hPa 0,0 l/m 0,00 h 0,00 h 0 W/m 0,4 km/h (0 Bft) 98,00 %
29.10.2019 23:00 4,0 C 2,4 C 1,9 C 92 % 1028,0 hPa 0,0 l/m 0,00 h 0,00 h 0 W/m 0,0 km/h (0 Bft) 97,54 %
30.10.2019 00:00 3,4 C 1,8 C 1,2 C 93 % 1028,1 hPa 0,0 l/m 0,00 h 0,00 h 0 W/m 0,0 km/h (0 Bft) 95,81 %
30.10.2019 01:00 2,9 C 1,7 C 1,1 C 93 % 1028,1 hPa 0,0 l/m 0,00 h 0,00 h 0 W/m 0,1 km/h (0 Bft) 97,81 %
30.10.2019 02:00 2,6 C 1,4 C 0,9 C 94 % 1028,2 hPa 0,0 l/m 0,00 h 0,00 h 0 W/m 0,0 km/h (0 Bft) 96,01 %
30.10.2019 03:00 2,2 C 1,1 C 0,6 C 95 % 1027,9 hPa 0,0 l/m 0,00 h 0,00 h 0 W/m 0,0 km/h (0 Bft) 98,71 %
30.10.2019 04:00 1,8 C 0,6 C 0,3 C 95 % 1027,8 hPa 0,0 l/m 0,00 h 0,00 h 0 W/m 0,0 km/h (0 Bft) 98,08 %
30.10.2019 05:00 1,6 C 0,5 C 0,0 C 96 % 1027,7 hPa 0,0 l/m 0,00 h 0,00 h 0 W/m 0,0 km/h (0 Bft) 95,41 %
30.10.2019 06:00 1,3 C 0,0 C -0,1 C 96 % 1027,7 hPa 0,0 l/m 0,00 h 0,00 h 0 W/m 0,0 km/h (0 Bft) 96,26 %
30.10.2019 07:00 1,0 C 0,1 C -0,4 C 96 % 1028,1 hPa 0,0 l/m 0,23 h 0,00 h 19 W/m 0,0 km/h (0 Bft) 99,22 %
30.10.2019 08:00 1,6 C 2,5 C 1,8 C 97 % 1028,6 hPa 0,0 l/m 0,03 h 0,03 h 61 W/m 0,5 km/h (0 Bft) 96,52 %
30.10.2019 09:00 3,2 C 5,0 C 3,3 C 98 % 1028,7 hPa 0,2 l/m 0,47 h 0,00 h 142 W/m 0,9 km/h (0 Bft) 97,55 %
30.10.2019 10:00 5,0 C 7,6 C 5,6 C 98 % 1028,6 hPa 0,0 l/m 0,27 h 0,00 h 160 W/m 0,0 km/h (0 Bft) 98,44 %
30.10.2019 11:00 6,9 C 10,1 C 7,4 C 96 % 1028,4 hPa 0,0 l/m 0,53 h 0,00 h 234 W/m 1,4 km/h (1 Bft) 97,79 %
30.10.2019 12:00 8,4 C 9,8 C 8,3 C 87 % 1027,8 hPa 0,0 l/m 0,00 h 0,00 h 180 W/m 1,1 km/h (1 Bft) 95,99 %
30.10.2019 13:00 9,0 C 9,9 C 8,7 C 83 % 1027,3 hPa 0,0 l/m 0,13 h 0,00 h 185 W/m 2,6 km/h (1 Bft) 99,07 %
30.10.2019 14:00 9,6 C 12,7 C 8,7 C 81 % 1027,1 hPa 0,0 l/m 0,97 h 0,00 h 299 W/m 3,2 km/h (1 Bft) 97,86 %
30.10.2019 15:00 10,0 C 10,2 C 7,7 C 77 % 1026,6 hPa 0,0 l/m 0,57 h 0,00 h 138 W/m 4,1 km/h (1 Bft) 97,15 %
30.10.2019 16:00 8,7 C 7,1 C 6,2 C 79 % 1026,6 hPa 0,0 l/m 0,07 h 0,00 h 37 W/m 1,3 km/h (1 Bft) 97,44 %
30.10.2019 17:00 7,0 C 4,5 C 3,9 C 81 % 1026,8 hPa 0,0 l/m 0,00 h 0,00 h 6 W/m 0,4 km/h (0 Bft) 95,27 %
30.10.2019 18:00 5,4 C 3,3 C 2,8 C 85 % 1026,9 hPa 0,0 l/m 0,00 h 0,00 h 0 W/m 0,3 km/h (0 Bft) 97,43 %
30.10.2019 19:00 4,2 C 2,6 C 2,2 C 88 % 1026,7 hPa 0,0 l/m 0,00 h 0,00 h 0 W/m 0,4 km/h (0 Bft) 98,08 %
30.10.2019 20:00 3,4 C 2,0 C 1,5 C 90 % 1026,5 hPa 0,0 l/m 0,00 h 0,00 h 0 W/m 0,3 km/h (0 Bft) 99,43 %
30.10.2019 21:00 2,7 C 1,0 C 0,6 C 91 % 1026,6 hPa 0,0 l/m 0,00 h 0,00 h 0 W/m 0,0 km/h (0 Bft) 94,24 %
30.10.2019 22:00 1,9 C 0,1 C -0,4 C 91 % 1026,5 hPa 0,0 l/m 0,00 h 0,00 h 0 W/m 0,0 km/h (0 Bft) 97,30 %
30.10.2019 23:00 1,4 C 0,1 C -0,3 C 93 % 1026,1 hPa 0,0 l/m 0,00 h 0,00 h 0 W/m 0,0 km/h (0 Bft) 96,81 %
31.10.2019 00:00 1,0 C -0,1 C -0,7 C 94 % 1025,9 hPa 0,0 l/m 0,00 h 0,00 h 0 W/m 0,1 km/h (0 Bft) 98,45 %
31.10.2019 01:00 0,7 C -0,3 C -0,7 C 94 % 1025,7 hPa 0,0 l/m 0,00 h 0,00 h 0 W/m 0,2 km/h (0 Bft) 95,27 %
31.10.2019 02:00 0,4 C -0,8 C -1,2 C 95 % 1025,5 hPa 0,0 l/m 0,00 h 0,00 h 0 W/m 0,1 km/h (0 Bft) 95,97 %
31.10.2019 03:00 0,1 C -1,1 C -1,3 C 95 % 1024,9 hPa 0,0 l/m 0,00 h 0,00 h 0 W/m 0,2 km/h (0 Bft) 97,15 %
31.10.2019 04:00 -0,2 C -1,3 C -1,5 C 96 % 1024,5 hPa 0,0 l/m 0,00 h 0,00 h 0 W/m 0,0 km/h (0 Bft) 97,79 %
31.10.2019 05:00 -0,5 C -1,6 C -1,8 C 96 % 1024,3 hPa 0,0 l/m 0,00 h 0,00 h 0 W/m 0,0 km/h (0 Bft) 94,34 %
31.10.2019 06:00 -0,8 C -1,7 C -2,1 C 96 % 1024,1 hPa 0,0 l/m 0,00 h 0,00 h 0 W/m 0,0 km/h (0 Bft) 96,23 %
31.10.2019 07:00 -1,0 C -2,0 C -2,2 C 96 % 1024,2 hPa 0,0 l/m 0,00 h 0,00 h 11 W/m 0,1 km/h (0 Bft) 96,44 %
31.10.2019 08:00 -0,9 C -0,7 C -1,2 C 97 % 1024,3 hPa 0,0 l/m 0,03 h 0,00 h 37 W/m 0,0 km/h (0 Bft) 97,77 %
31.10.2019 09:00 0,9 C 3,9 C 1,0 C 98 % 1024,2 hPa 0,2 l/m 1,00 h 0,00 h 230 W/m 0,3 km/h (0 Bft) 96,56 %
31.10.2019 10:00 3,8 C 8,2 C 4,0 C 98 % 1024,0 hPa 0,0 l/m 0,83 h 0,00 h 279 W/m 2,0 km/h (1 Bft) 95,59 %
31.10.2019 11:00 7,5 C 13,2 C 7,4 C 86 % 1023,7 hPa 0,0 l/m 1,00 h 0,00 h 414 W/m 16,5 km/h (3 Bft) 96,72 %
31.10.2019 12:00 10,4 C 14,7 C 10,0 C 67 % 1022,9 hPa 0,0 l/m 1,00 h 0,00 h 474 W/m 14,1 km/h (3 Bft) 94,95 %
31.10.2019 13:00 11,0 C 14,9 C 9,9 C 63 % 1022,4 hPa 0,0 l/m 1,00 h 0,00 h 432 W/m 13,2 km/h (3 Bft) 98,79 %
31.10.2019 14:00 11,3 C 14,8 C 9,5 C 60 % 1021,8 hPa 0,0 l/m 1,00 h 0,00 h 352 W/m 12,5 km/h (3 Bft) 98,28 %
31.10.2019 15:00 11,2 C 12,6 C 8,8 C 61 % 1021,4 hPa 0,0 l/m 0,77 h 0,00 h 193 W/m 5,2 km/h (1 Bft) 96,30 %
31.10.2019 16:00 9,8 C 7,8 C 6,6 C 65 % 1021,0 hPa 0,0 l/m 0,00 h 0,00 h 23 W/m 1,1 km/h (0 Bft) 97,84 %
31.10.2019 17:00 7,1 C 3,8 C 3,0 C 72 % 1021,0 hPa 0,0 l/m 0,00 h 0,00 h 6 W/m 0,0 km/h (0 Bft) 95,46 %
31.10.2019 18:00 4,6 C 2,2 C 1,5 C 79 % 1021,1 hPa 0,0 l/m 0,00 h 0,00 h 0 W/m 0,0 km/h (0 Bft) 96,08 %
31.10.2019 19:00 3,7 C 3,0 C 1,9 C 84 % 1021,0 hPa 0,0 l/m 0,00 h 0,00 h 0 W/m 1,7 km/h (1 Bft) 96,37 %
31.10.2019 20:00 4,6 C 4,1 C 3,3 C 80 % 1020,6 hPa 0,0 l/m 0,00 h 0,00 h 0 W/m 2,5 km/h (1 Bft) 98,22 %
31.10.2019 21:00 4,9 C 4,2 C 3,5 C 79 % 1020,4 hPa 0,0 l/m 0,00 h 0,00 h 0 W/m 6,5 km/h (2 Bft) 95,29 %
31.10.2019 22:00 4,9 C 4,0 C 3,5 C 80 % 1019,7 hPa 0,0 l/m 0,00 h 0,00 h 0 W/m 7,1 km/h (2 Bft) 99,22 %
31.10.2019 23:00 4,5 C 3,5 C 3,0 C 80 % 1019,1 hPa 0,0 l/m 0,00 h 0,00 h 0 W/m 5,8 km/h (2 Bft) 95,57 %
01.11.2019 00:00 4,1 C 3,3 C 2,8 C 81 % 1018,4 hPa 0,0 l/m 0,00 h 0,00 h 0 W/m 9,5 km/h (2 Bft) 97,07 %
01.11.2019 01:00 4,1 C 3,4 C 3,1 C 81 % 1017,7 hPa 0,0 l/m 0,00 h 0,00 h 0 W/m 11,2 km/h (2 Bft) 98,50 %
01.11.2019 02:00 4,3 C 3,8 C 3,3 C 81 % 1016,8 hPa 0,0 l/m 0,00 h 0,00 h 0 W/m 12,4 km/h (3 Bft) 98,50 %
01.11.2019 03:00 4,4 C 3,9 C 3,3 C 81 % 1015,7 hPa 0,0 l/m 0,00 h 0,00 h 0 W/m 15,1 km/h (3 Bft) 95,87 %
01.11.2019 04:00 4,4 C 3,8 C 3,3 C 82 % 1014,7 hPa 0,0 l/m 0,00 h 0,00 h 0 W/m 13,3 km/h (3 Bft) 95,49 %
01.11.2019 05:00 4,7 C 4,3 C 3,8 C 83 % 1014,1 hPa 0,0 l/m 0,00 h 0,00 h 0 W/m 14,7 km/h (3 Bft) 99,29 %
01.11.2019 06:00 5,1 C 4,4 C 3,9 C 83 % 1013,1 hPa 0,0 l/m 0,00 h 0,00 h 0 W/m 19,1 km/h (3 Bft) 97,20 %
01.11.2019 07:00 5,3 C 4,9 C 4,3 C 85 % 1012,3 hPa 0,0 l/m 0,00 h 0,00 h 5 W/m 19,4 km/h (3 Bft) 95,73 %
01.11.2019 08:00 5,6 C 4,9 C 4,4 C 89 % 1011,6 hPa 0,0 l/m 0,00 h 0,00 h 20 W/m 21,5 km/h (4 Bft) 98,72 %
01.11.2019 09:00 5,5 C 4,5 C 4,1 C 94 % 1010,7 hPa 0,0 l/m 0,00 h 0,00 h 37 W/m 18,8 km/h (3 Bft) 96,58 %
01.11.2019 10:00 5,9 C 5,4 C 4,8 C 96 % 1009,7 hPa 0,0 l/m 0,00 h 0,00 h 46 W/m 19,4 km/h (3 Bft) 96,64 %
01.11.2019 11:00 6,2 C 5,5 C 5,0 C 97 % 1008,8 hPa 0,4 l/m 0,00 h 0,73 h 45 W/m 18,9 km/h (3 Bft) 95,03 %
01.11.2019 12:00 6,7 C 5,9 C 5,4 C 97 % 1007,6 hPa 0,8 l/m 0,00 h 1,00 h 54 W/m 20,3 km/h (4 Bft) 97,16 %
01.11.2019 13:00 7,1 C 6,4 C 5,9 C 98 % 1006,4 hPa 0,6 l/m 0,00 h 1,00 h 46 W/m 16,8 km/h (3 Bft) 96,93 %
01.11.2019 14:00 7,7 C 7,1 C 6,6 C 98 % 1005,0 hPa 0,8 l/m 0,00 h 1,00 h 56 W/m 16,0 km/h (3 Bft) 95,94 %
01.11.2019 15:00 8,2 C 7,4 C 7,0 C 99 % 1003,8 hPa 0,4 l/m 0,00 h 0,37 h 43 W/m 17,9 km/h (3 Bft) 97,15 %
01.11.2019 16:00 8,5 C 7,8 C 7,2 C 99 % 1002,4 hPa 0,2 l/m 0,00 h 0,13 h 17 W/m 18,6 km/h (3 Bft) 97,50 %
01.11.2019 17:00 8,7 C 7,8 C 7,4 C 99 % 1001,2 hPa 0,0 l/m 0,00 h 0,17 h 2 W/m 18,1 km/h (3 Bft) 96,87 %
01.11.2019 18:00 9,0 C 8,1 C 7,8 C 99 % 1000,4 hPa 0,2 l/m 0,00 h 0,03 h 0 W/m 19,4 km/h (3 Bft) 96,65 %
01.11.2019 19:00 9,3 C 8,3 C 7,9 C 100 % 999,4 hPa 0,0 l/m 0,00 h 0,03 h 0 W/m 18,9 km/h (3 Bft) 98,35 %
01.11.2019 20:00 9,6 C 8,8 C 8,3 C 100 % 998,5 hPa 0,0 l/m 0,00 h 0,03 h 0 W/m 17,7 km/h (3 Bft) 96,96 %
01.11.2019 21:00 9,8 C 8,9 C 8,6 C 100 % 998,0 hPa 0,0 l/m 0,00 h 0,00 h 0 W/m 12,4 km/h (3 Bft) 95,71 %
01.11.2019 22:00 10,1 C 9,3 C 8,9 C 100 % 997,0 hPa 0,0 l/m 0,00 h 0,07 h 0 W/m 11,5 km/h (2 Bft) 96,07 %
01.11.2019 23:00 10,4 C 9,4 C 9,0 C 100 % 995,9 hPa 0,2 l/m 0,00 h 0,33 h 0 W/m 11,5 km/h (2 Bft) 99,56 %
02.11.2019 00:00 10,7 C 10,0 C 9,4 C 100 % 995,2 hPa 1,2 l/m 0,00 h 0,72 h 0 W/m 14,0 km/h (3 Bft) 94,19 %
02.11.2019 01:00 11,0 C 10,3 C 9,8 C 100 % 994,2 hPa 0,2 l/m 0,00 h 0,17 h 0 W/m 11,0 km/h (2 Bft) 98,10 %
02.11.2019 02:00 11,5 C 10,6 C 10,1 C 100 % 993,2 hPa 0,0 l/m 0,00 h 0,03 h 0 W/m 14,0 km/h (3 Bft) 99,07 %
02.11.2019 03:00 11,7 C 11,0 C 10,6 C 100 % 992,2 hPa 0,0 l/m 0,00 h 0,00 h 0 W/m 8,9 km/h (2 Bft) 95,18 %
02.11.2019 04:00 12,3 C 11,6 C 11,1 C 100 % 991,5 hPa 0,6 l/m 0,00 h 0,63 h 0 W/m 10,2 km/h (2 Bft) 98,27 %
02.11.2019 05:00 12,9 C 12,2 C 11,7 C 100 % 991,1 hPa 0,6 l/m 0,00 h 0,37 h 0 W/m 10,7 km/h (2 Bft) 98,57 %
02.11.2019 06:00 13,2 C 12,2 C 11,7 C 100 % 990,8 hPa 0,2 l/m 0,00 h 0,20 h 0 W/m 9,2 km/h (2 Bft) 97,45 %
02.11.2019 07:00 13,3 C 12,5 C 11,9 C 100 % 990,8 hPa 0,8 l/m 0,00 h 0,43 h 6 W/m 11,6 km/h (2 Bft) 96,58 %
02.11.2019 08:00 13,6 C 12,8 C 12,2 C 100 % 991,3 hPa 0,0 l/m 0,00 h 0,00 h 31 W/m 18,4 km/h (3 Bft) 98,22 %
02.11.2019 09:00 13,6 C 13,1 C 12,4 C 100 % 991,4 hPa 0,0 l/m 0,00 h 0,00 h 72 W/m 13,7 km/h (3 Bft) 98,29 %
02.11.2019 10:00 14,1 C 14,1 C 13,6 C 100 % 991,4 hPa 0,0 l/m 0,40 h 0,00 h 150 W/m 19,0 km/h (3 Bft) 95,60 %
02.11.2019 11:00 14,5 C 13,2 C 12,9 C 95 % 991,4 hPa 0,8 l/m 0,00 h 0,43 h 47 W/m 19,1 km/h (3 Bft) 99,22 %
02.11.2019 12:00 13,8 C 12,6 C 11,7 C 95 % 991,5 hPa 0,0 l/m 0,03 h 0,30 h 111 W/m 14,2 km/h (3 Bft) 97,86 %
02.11.2019 13:00 13,3 C 13,5 C 11,6 C 93 % 991,4 hPa 0,0 l/m 0,13 h 0,00 h 147 W/m 13,5 km/h (3 Bft) 96,29 %
02.11.2019 14:00 14,3 C 14,9 C 12,8 C 85 % 990,7 hPa 0,0 l/m 0,57 h 0,00 h 152 W/m 25,2 km/h (4 Bft) 98,64 %
02.11.2019 15:00 14,4 C 14,2 C 13,1 C 80 % 990,0 hPa 0,0 l/m 0,30 h 0,00 h 99 W/m 28,4 km/h (4 Bft) 96,08 %
02.11.2019 16:00 14,1 C 13,3 C 12,6 C 79 % 989,5 hPa 0,0 l/m 0,17 h 0,00 h 33 W/m 20,6 km/h (4 Bft) 97,36 %
02.11.2019 17:00 13,4 C 12,3 C 11,7 C 80 % 989,5 hPa 0,0 l/m 0,00 h 0,00 h 5 W/m 19,7 km/h (3 Bft) 98,01 %
02.11.2019 18:00 13,0 C 12,2 C 11,7 C 79 % 989,6 hPa 0,0 l/m 0,00 h 0,00 h 0 W/m 21,3 km/h (4 Bft) 97,42 %
02.11.2019 19:00 12,7 C 11,9 C 11,3 C 78 % 989,5 hPa 0,2 l/m 0,00 h 0,00 h 0 W/m 24,1 km/h (4 Bft) 96,79 %
02.11.2019 20:00 12,4 C 11,7 C 11,1 C 79 % 989,2 hPa 0,0 l/m 0,00 h 0,00 h 0 W/m 23,4 km/h (4 Bft) 97,68 %
02.11.2019 21:00 12,3 C 11,7 C 11,1 C 79 % 989,1 hPa 0,0 l/m 0,00 h 0,00 h 0 W/m 24,1 km/h (4 Bft) 99,05 %
02.11.2019 22:00 12,1 C 11,2 C 10,6 C 79 % 989,0 hPa 0,0 l/m 0,00 h 0,00 h 0 W/m 18,9 km/h (3 Bft) 96,45 %
02.11.2019 23:00 11,9 C 10,9 C 10,3 C 81 % 988,3 hPa 0,0 l/m 0,00 h 0,00 h 0 W/m 16,6 km/h (3 Bft) 96,70 %
03.11.2019 00:00 11,4 C 10,3 C 9,7 C 83 % 988,0 hPa 0,0 l/m 0,00 h 0,00 h 0 W/m 15,2 km/h (3 Bft) 99,30 %
03.11.2019 01:00 10,8 C 10,0 C 9,4 C 84 % 987,6 hPa 0,0 l/m 0,00 h 0,00 h 0 W/m 13,7 km/h (3 Bft) 97,58 %
03.11.2019 02:00 10,7 C 8,9 C 8,5 C 86 % 987,2 hPa 0,8 l/m 0,00 h 0,63 h 0 W/m 12,7 km/h (3 Bft) 96,07 %
03.11.2019 03:00 10,0 C 7,8 C 7,8 C 92 % 986,6 hPa 1,2 l/m 0,00 h 1,00 h 0 W/m 13,0 km/h (3 Bft) 98,50 %
03.11.2019 04:00 9,6 C 8,2 C 7,8 C 95 % 985,9 hPa 0,4 l/m 0,00 h 0,80 h 0 W/m 16,8 km/h (3 Bft) 98,39 %
03.11.2019 05:00 9,7 C 8,4 C 8,0 C 97 % 985,6 hPa 0,2 l/m 0,00 h 0,47 h 0 W/m 17,9 km/h (3 Bft) 97,08 %
03.11.2019 06:00 9,8 C 8,7 C 8,3 C 97 % 985,6 hPa 0,0 l/m 0,00 h 0,03 h 0 W/m 17,1 km/h (3 Bft) 97,06 %
03.11.2019 07:00 9,7 C 8,4 C 8,3 C 98 % 985,7 hPa 0,0 l/m 0,00 h 0,00 h 9 W/m 12,3 km/h (3 Bft) 97,87 %
03.11.2019 08:00 9,7 C 9,1 C 8,4 C 98 % 985,9 hPa 0,0 l/m 0,00 h 0,00 h 26 W/m 9,0 km/h (2 Bft) 98,57 %
03.11.2019 09:00 10,2 C 10,3 C 9,5 C 99 % 985,9 hPa 0,0 l/m 0,27 h 0,00 h 97 W/m 6,5 km/h (2 Bft) 95,94 %
03.11.2019 10:00 11,3 C 12,9 C 11,3 C 99 % 985,7 hPa 0,0 l/m 0,80 h 0,03 h 227 W/m 16,6 km/h (3 Bft) 97,51 %
03.11.2019 11:00 12,8 C 13,8 C 12,3 C 94 % 985,6 hPa 0,0 l/m 0,47 h 0,00 h 188 W/m 17,1 km/h (3 Bft) 98,58 %
03.11.2019 12:00 13,6 C 15,1 C 13,1 C 90 % 985,1 hPa 0,0 l/m 0,60 h 0,03 h 244 W/m 17,1 km/h (3 Bft) 96,54 %
03.11.2019 13:00 14,4 C 15,6 C 13,6 C 86 % 984,6 hPa 0,0 l/m 0,57 h 0,00 h 210 W/m 18,7 km/h (3 Bft) 97,29 %
03.11.2019 14:00 14,7 C 14,4 C 13,5 C 85 % 984,3 hPa 0,0 l/m 0,07 h 0,00 h 95 W/m 15,2 km/h (3 Bft) 98,00 %
03.11.2019 15:00 14,3 C 13,5 C 12,7 C 87 % 984,3 hPa 0,0 l/m 0,00 h 0,03 h 40 W/m 15,0 km/h (3 Bft) 97,51 %
03.11.2019 16:00 13,9 C 11,7 C 11,3 C 90 % 984,4 hPa 0,2 l/m 0,00 h 0,27 h 9 W/m 11,3 km/h (2 Bft) 97,65 %
03.11.2019 17:00 13,2 C 11,5 C 11,0 C 93 % 984,7 hPa 0,6 l/m 0,00 h 0,47 h 0 W/m 16,0 km/h (3 Bft) 98,16 %
03.11.2019 18:00 12,7 C 11,1 C 10,6 C 96 % 984,9 hPa 0,8 l/m 0,00 h 0,57 h 0 W/m 11,5 km/h (2 Bft) 96,03 %
03.11.2019 19:00 12,3 C 11,0 C 10,6 C 97 % 984,9 hPa 0,0 l/m 0,00 h 0,07 h 0 W/m 12,3 km/h (3 Bft) 97,93 %
03.11.2019 20:00 12,0 C 10,9 C 10,4 C 98 % 985,0 hPa 0,0 l/m 0,00 h 0,00 h 0 W/m 7,2 km/h (2 Bft) 97,65 %
03.11.2019 21:00 11,7 C 10,6 C 10,0 C 97 % 985,4 hPa 0,0 l/m 0,00 h 0,10 h 0 W/m 16,5 km/h (3 Bft) 96,94 %
03.11.2019 22:00 11,7 C 10,6 C 10,0 C 98 % 985,9 hPa 0,2 l/m 0,00 h 0,10 h 0 W/m 18,7 km/h (3 Bft) 97,29 %
03.11.2019 23:00 11,4 C 10,2 C 9,6 C 97 % 986,6 hPa 1,0 l/m 0,00 h 0,47 h 0 W/m 17,9 km/h (3 Bft) 98,01 %
Min-Datum _ 31.10.19 31.10.19 31.10.19 31.10.19 03.11.19 - - - - 28.10.19 01.11.19
_ Min-Zeit 07:46 06:08 04:48 14:50 14:20 - - - - 00:00 13:22
Minimum _ -1,1 C -2,2 C -2,2 C 58 % 984,2 hPa - - - - 0,0 km/h (0 Bft) 22,73 %
Max-Datum _ 03.11.19 29.10.19 29.10.19 01.11.19 30.10.19 02.11.19 28.10.19 03.11.19 28.10.19 02.11.19 28.10.19
_ Max-Zeit 13:56 13:08 12:18 18:54 08:42 00:32 15:19 04:07 12:32 08:00 00:00
Maximum _ 14,8 C 18,9 C 14,4 C 100 % 1028,8 hPa 1,2 l/m 0,08 h 0,08 h 565 W/m 45,1 km/h
S-SO (6 Bft)
100,00 %
Durchschnitt _ 7,7 C 7,4 C 6,3 C 90 % 1011,9 hPa #14,4 l/m #25:36 h #13:19 h 137 W/m 7,8 km/h (2 Bft) 97,20 %
© 2019 W. Hausmann